createdAt,value
2017-11-06T00:00:45.343Z,35.47
2017-11-06T00:02:48.017Z,33.73
2017-11-06T00:04:51.446Z,33.73
2017-11-06T00:06:54.162Z,34.40
2017-11-06T00:08:56.854Z,35.90
2017-11-06T00:10:59.556Z,39.77
2017-11-06T00:13:03.008Z,29.23
2017-11-06T00:15:05.668Z,40.43
2017-11-06T00:17:08.351Z,32.47
2017-11-06T00:19:11.058Z,33.07
2017-11-06T00:26:09.659Z,31.47
2017-11-06T00:28:12.374Z,31.97
2017-11-06T00:30:15.878Z,42.43
2017-11-06T00:32:18.554Z,31.60
2017-11-06T00:34:21.206Z,36.00
2017-11-06T00:36:24.626Z,35.77
2017-11-06T00:38:27.283Z,32.37
2017-11-06T00:40:29.933Z,34.00
2017-11-06T00:42:33.391Z,30.03
2017-11-06T00:44:36.030Z,29.97
2017-11-06T00:46:38.691Z,32.50
2017-11-06T00:48:42.119Z,34.77
2017-11-06T00:50:44.887Z,34.00
2017-11-06T00:52:47.552Z,37.93
2017-11-06T00:54:50.220Z,29.63
2017-11-06T00:56:52.889Z,42.93
2017-11-06T00:58:56.324Z,33.17
2017-11-06T01:00:59.034Z,33.50
2017-11-06T01:03:01.691Z,32.93
2017-11-06T01:05:04.368Z,32.33
2017-11-06T01:07:07.093Z,37.97
2017-11-06T01:09:13.558Z,28.13
2017-11-06T01:11:16.185Z,36.87
2017-11-06T01:13:18.872Z,33.30
2017-11-06T01:15:21.585Z,28.00
2017-11-06T01:17:24.224Z,26.83
2017-11-06T01:19:26.903Z,30.57
2017-11-06T01:21:29.545Z,30.77
2017-11-06T01:23:32.197Z,30.60
2017-11-06T01:25:34.839Z,30.40
2017-11-06T01:27:38.255Z,30.17
2017-11-06T01:29:40.938Z,31.57
2017-11-06T01:31:43.601Z,37.90
2017-11-06T01:33:46.253Z,30.60
2017-11-06T01:35:49.001Z,33.83
2017-11-06T01:37:51.664Z,31.70
2017-11-06T01:39:54.314Z,30.47
2017-11-06T01:41:56.980Z,34.23
2017-11-06T01:43:59.636Z,34.63
2017-11-06T01:46:03.062Z,35.40
2017-11-06T01:48:05.762Z,33.30
2017-11-06T01:50:08.437Z,30.60
2017-11-06T01:52:11.108Z,33.53
2017-11-06T01:54:13.807Z,30.73
2017-11-06T01:56:16.474Z,31.73
2017-11-06T01:58:19.207Z,30.30
2017-11-06T02:00:21.926Z,32.43
2017-11-06T02:02:24.627Z,32.43
2017-11-06T02:04:27.330Z,31.77
2017-11-06T02:06:30.028Z,29.13
2017-11-06T02:08:32.696Z,31.93
2017-11-06T02:10:35.426Z,37.33
2017-11-06T02:12:38.147Z,37.03
2017-11-06T02:14:40.811Z,38.30
2017-11-06T02:16:43.445Z,37.33
2017-11-06T02:18:46.104Z,34.90
2017-11-06T02:20:48.828Z,39.60
2017-11-06T02:22:51.503Z,40.13
2017-11-06T02:24:54.226Z,39.53
2017-11-06T02:26:56.953Z,47.87
2017-11-06T02:28:59.659Z,43.67
2017-11-06T02:31:02.354Z,41.27
2017-11-06T02:33:05.088Z,41.10
2017-11-06T02:35:07.786Z,44.53
2017-11-06T02:37:10.451Z,46.93
2017-11-06T02:39:13.143Z,37.73
2017-11-06T02:41:15.794Z,35.83
2017-11-06T02:43:18.484Z,41.27
2017-11-06T02:45:21.183Z,41.77
2017-11-06T02:47:23.825Z,46.57
2017-11-06T02:49:26.515Z,42.40
2017-11-06T02:51:29.174Z,43.67
2017-11-06T02:53:31.878Z,44.13
2017-11-06T02:55:34.565Z,42.33
2017-11-06T02:57:37.219Z,40.80
2017-11-06T02:59:39.890Z,40.17
2017-11-06T03:01:42.599Z,45.23
2017-11-06T03:03:45.247Z,58.13
2017-11-06T03:05:47.931Z,43.30
2017-11-06T03:07:50.618Z,45.93
2017-11-06T03:09:53.287Z,43.37
2017-11-06T03:11:56.007Z,55.33
2017-11-06T03:13:59.458Z,42.77
2017-11-06T03:18:38.769Z,53.37
2017-11-06T03:20:41.510Z,46.00
2017-11-06T03:22:44.233Z,59.20
2017-11-06T03:24:46.895Z,49.23
2017-11-06T03:26:49.611Z,52.57
2017-11-06T03:28:52.356Z,50.00
2017-11-06T03:30:55.078Z,44.07
2017-11-06T03:32:58.554Z,61.23
2017-11-06T03:35:01.450Z,49.93
2017-11-06T03:37:04.167Z,46.03
2017-11-06T03:39:06.844Z,47.90
2017-11-06T03:41:09.548Z,48.13
2017-11-06T03:43:12.236Z,50.17
2017-11-06T03:45:22.069Z,46.27
2017-11-06T03:47:24.744Z,49.90
2017-11-06T03:49:27.443Z,44.07
2017-11-06T03:51:30.179Z,44.80
2017-11-06T03:53:32.905Z,38.73
2017-11-06T03:55:36.345Z,52.50
2017-11-06T03:57:39.073Z,55.10
2017-11-06T03:59:41.728Z,51.13
2017-11-06T04:01:44.440Z,48.23
2017-11-06T04:03:47.160Z,58.20
2017-11-06T04:06:15.709Z,47.23
2017-11-06T04:08:19.215Z,51.70
2017-11-06T04:10:22.714Z,48.10
2017-11-06T04:14:59.244Z,49.93
2017-11-06T04:21:59.224Z,50.57
2017-11-06T04:24:21.235Z,50.50
2017-11-06T04:26:24.673Z,46.33
2017-11-06T04:28:27.416Z,49.90
2017-11-06T04:30:30.188Z,54.20
2017-11-06T04:32:33.621Z,49.60
2017-11-06T04:34:36.308Z,49.27
2017-11-06T04:36:38.999Z,50.60
2017-11-06T04:38:41.654Z,47.20
2017-11-06T04:40:44.337Z,42.90
2017-11-06T04:42:47.991Z,43.83
2017-11-06T04:44:50.696Z,44.93
2017-11-06T04:46:53.359Z,50.77
2017-11-06T04:48:56.015Z,55.40
2017-11-06T04:50:59.476Z,46.20
2017-11-06T04:53:02.163Z,39.10
2017-11-06T04:55:04.895Z,44.80
2017-11-06T04:57:07.574Z,46.43
2017-11-06T04:59:10.226Z,35.40
2017-11-06T05:01:12.884Z,37.00
2017-11-06T05:03:16.415Z,36.13
2017-11-06T05:05:19.176Z,38.83
2017-11-06T05:07:21.872Z,42.83
2017-11-06T05:09:24.516Z,40.10
2017-11-06T05:11:27.195Z,39.17
2017-11-06T05:13:29.830Z,31.90
2017-11-06T05:15:32.514Z,34.73
2017-11-06T05:17:35.202Z,30.57
2017-11-06T05:19:38.631Z,45.73
2017-11-06T05:21:41.276Z,36.27
2017-11-06T05:23:44.705Z,35.00
2017-11-06T05:25:47.374Z,34.80
2017-11-06T05:27:50.032Z,33.23
2017-11-06T05:29:52.733Z,35.73
2017-11-06T05:31:55.399Z,35.07
2017-11-06T05:33:58.041Z,31.93
2017-11-06T05:36:01.501Z,39.50
2017-11-06T05:38:08.673Z,35.10
2017-11-06T05:40:11.330Z,37.97
2017-11-06T05:42:14.026Z,31.60
2017-11-06T05:44:16.734Z,42.83
2017-11-06T05:46:20.156Z,35.70
2017-11-06T05:48:22.866Z,34.60
2017-11-06T05:50:25.506Z,32.43
2017-11-06T05:52:28.174Z,32.77
2017-11-06T05:54:30.850Z,28.23
2017-11-06T05:56:33.488Z,35.60
2017-11-06T05:58:36.121Z,35.37
2017-11-06T06:00:38.816Z,36.67
2017-11-06T06:02:41.463Z,30.13
2017-11-06T06:04:44.147Z,39.63
2017-11-06T06:06:46.931Z,47.57
2017-11-06T06:08:50.497Z,51.37
2017-11-06T06:10:53.176Z,63.97
2017-11-06T06:12:56.077Z,51.67
2017-11-06T06:14:59.703Z,54.83
2017-11-06T06:17:03.347Z,32.33
2017-11-06T06:19:06.070Z,38.47
2017-11-06T06:21:08.742Z,36.23
2017-11-06T06:23:11.384Z,38.03
2017-11-06T06:25:14.060Z,46.13
2017-11-06T06:27:16.684Z,28.40
2017-11-06T06:29:19.324Z,38.83
2017-11-06T06:31:22.010Z,45.93
2017-11-06T06:33:24.661Z,52.40
2017-11-06T06:35:27.296Z,46.17
2017-11-06T06:37:29.979Z,50.13
2017-11-06T06:39:33.396Z,46.17
2017-11-06T06:41:36.046Z,41.20
2017-11-06T06:43:39.477Z,52.83
2017-11-06T06:45:42.131Z,47.30
2017-11-06T06:47:44.788Z,45.20
2017-11-06T06:49:48.197Z,50.50
2017-11-06T06:51:50.837Z,49.23
2017-11-06T06:53:53.538Z,50.93
2017-11-06T06:55:56.224Z,45.70
2017-11-06T06:57:58.860Z,47.57
2017-11-06T07:00:01.551Z,49.60
2017-11-06T07:02:06.015Z,44.23
2017-11-06T07:04:08.718Z,49.00
2017-11-06T07:06:11.420Z,45.47
2017-11-06T07:08:14.828Z,68.87
2017-11-06T07:10:18.302Z,81.83
2017-11-06T07:12:21.034Z,55.77
2017-11-06T07:14:23.740Z,48.00
2017-11-06T07:16:26.431Z,38.17
2017-11-06T07:18:29.895Z,43.97
2017-11-06T07:20:32.598Z,37.33
2017-11-06T07:22:35.250Z,42.03
2017-11-06T07:24:37.926Z,52.00
2017-11-06T07:26:40.576Z,34.17
2017-11-06T07:28:43.233Z,30.87
2017-11-06T07:30:45.915Z,36.27
2017-11-06T07:32:48.560Z,37.97
2017-11-06T07:34:51.992Z,33.90
2017-11-06T07:36:54.665Z,35.77
2017-11-06T07:38:57.332Z,27.60
2017-11-06T07:41:00.046Z,14.40
2017-11-06T07:43:02.712Z,13.60
2017-11-06T07:45:05.391Z,15.60
2017-11-06T07:47:08.152Z,15.10
2017-11-06T07:49:10.928Z,1999.90
2017-11-06T07:51:13.606Z,1999.90
2017-11-06T07:53:16.306Z,1999.90
2017-11-06T07:55:19.024Z,12.10
2017-11-06T07:57:21.680Z,1999.90
2017-11-06T07:59:25.085Z,10.90
2017-11-06T08:01:28.569Z,1999.90
2017-11-06T08:03:31.999Z,1999.90
2017-11-06T08:05:34.801Z,1999.90
2017-11-06T08:07:37.486Z,1999.90
2017-11-06T08:09:40.148Z,1999.90
2017-11-06T08:11:42.827Z,10.97
2017-11-06T08:13:45.836Z,16.13
2017-11-06T08:15:48.490Z,15.63
2017-11-06T08:17:51.153Z,16.07
2017-11-06T08:19:53.816Z,15.17
2017-11-06T08:21:56.451Z,25.70
2017-11-06T08:23:59.859Z,20.97
2017-11-06T08:26:02.523Z,19.33
2017-11-06T08:28:05.936Z,16.60
2017-11-06T08:30:08.598Z,14.20
2017-11-06T08:32:11.362Z,12.93
2017-11-06T08:34:15.343Z,13.83
2017-11-06T08:36:18.059Z,18.43
2017-11-06T08:38:20.727Z,11.80
2017-11-06T08:40:24.152Z,13.27
2017-11-06T08:42:26.828Z,11.97
2017-11-06T08:44:29.489Z,17.97
2017-11-06T08:46:32.167Z,12.80
2017-11-06T08:48:34.849Z,13.97
2017-11-06T08:50:37.502Z,16.33
2017-11-06T08:52:40.307Z,23.87
2017-11-06T08:54:43.020Z,18.40
2017-11-06T08:56:45.668Z,21.80
2017-11-06T08:58:48.429Z,42.70
2017-11-06T09:00:51.125Z,17.83
2017-11-06T09:02:53.773Z,20.73
2017-11-06T09:04:56.433Z,20.60
2017-11-06T09:06:59.867Z,14.50
2017-11-06T09:09:02.536Z,16.30
2017-11-06T09:11:05.184Z,16.50
2017-11-06T09:13:07.844Z,18.90
2017-11-06T09:15:11.258Z,15.20
2017-11-06T09:17:13.901Z,15.23
2017-11-06T09:19:17.341Z,20.47
2017-11-06T09:21:20.023Z,13.73
2017-11-06T09:23:23.160Z,16.10
2017-11-06T09:25:26.589Z,16.20
2017-11-06T09:27:29.233Z,17.70
2017-11-06T09:29:33.733Z,22.50
2017-11-06T09:31:36.429Z,13.70
2017-11-06T09:33:39.883Z,25.37
2017-11-06T09:35:42.771Z,16.77
2017-11-06T09:37:45.633Z,23.40
2017-11-06T09:39:48.313Z,8.50
2017-11-06T09:41:51.115Z,16.50
2017-11-06T09:43:53.778Z,14.90
2017-11-06T09:45:57.272Z,18.27
2017-11-06T09:50:16.849Z,26.80
2017-11-06T09:52:19.605Z,18.87
2017-11-06T09:54:22.443Z,18.67
2017-11-06T09:56:28.633Z,19.87
2017-11-06T09:58:32.489Z,19.97
2017-11-06T10:00:42.130Z,19.87
2017-11-06T10:02:45.739Z,14.00
2017-11-06T10:04:49.142Z,13.83
2017-11-06T10:06:51.825Z,16.33
2017-11-06T10:08:54.472Z,40.80
2017-11-06T10:10:57.886Z,11.87
2017-11-06T10:13:00.587Z,11.10
2017-11-06T10:15:03.275Z,17.37
2017-11-06T10:17:05.924Z,14.20
2017-11-06T10:19:08.583Z,15.07
2017-11-06T10:21:11.236Z,9.70
2017-11-06T10:23:13.922Z,12.70
2017-11-06T10:25:17.369Z,12.07
2017-11-06T10:27:20.029Z,12.67
2017-11-06T10:29:22.722Z,16.43
2017-11-06T10:31:25.403Z,8.70
2017-11-06T10:33:28.090Z,19.43
2017-11-06T10:35:30.761Z,9.83
2017-11-06T10:37:33.461Z,18.43
2017-11-06T10:39:36.884Z,12.23
2017-11-06T10:41:39.538Z,9.43
2017-11-06T10:43:42.977Z,9.90
2017-11-06T10:45:45.642Z,16.53
2017-11-06T10:47:48.322Z,17.37
2017-11-06T10:49:51.752Z,15.10
2017-11-06T10:51:54.431Z,14.70
2017-11-06T10:53:57.099Z,17.00
2017-11-06T10:55:59.790Z,13.07
2017-11-06T10:58:03.241Z,16.73
2017-11-06T11:00:05.904Z,17.40
2017-11-06T11:02:08.597Z,12.67
2017-11-06T11:04:11.268Z,13.00
2017-11-06T11:06:13.955Z,12.33
2017-11-06T11:08:16.651Z,14.10
2017-11-06T11:10:21.339Z,12.00
2017-11-06T11:12:23.999Z,11.37
2017-11-06T11:14:26.692Z,11.93
2017-11-06T11:16:29.349Z,17.53
2017-11-06T11:18:32.011Z,20.83
2017-11-06T11:20:34.711Z,19.03
2017-11-06T11:22:38.137Z,16.97
2017-11-06T11:24:41.016Z,16.50
2017-11-06T11:26:43.893Z,11.57
2017-11-06T11:28:46.918Z,16.60
2017-11-06T11:30:50.505Z,15.13
2017-11-06T11:32:53.334Z,20.93
2017-11-06T11:34:56.089Z,10.40
2017-11-06T11:36:59.603Z,15.90
2017-11-06T11:39:02.337Z,9.63
2017-11-06T11:41:05.080Z,8.40
2017-11-06T11:43:07.796Z,13.00
2017-11-06T11:45:10.465Z,11.70
2017-11-06T11:47:13.108Z,8.73
2017-11-06T11:49:16.555Z,12.20
2017-11-06T11:51:19.209Z,9.73
2017-11-06T11:53:21.851Z,10.07
2017-11-06T11:55:25.301Z,14.87
2017-11-06T11:57:27.944Z,11.40
2017-11-06T11:59:31.361Z,10.50
2017-11-06T12:01:34.044Z,10.17
2017-11-06T12:03:36.684Z,11.33
2017-11-06T12:05:40.116Z,17.03
2017-11-06T12:07:42.804Z,10.50
2017-11-06T12:09:45.444Z,19.30
2017-11-06T12:11:48.090Z,15.37
2017-11-06T12:13:50.764Z,28.13
2017-11-06T12:15:54.190Z,15.53
2017-11-06T12:17:56.842Z,10.00
2017-11-06T12:20:00.295Z,22.53
2017-11-06T12:22:02.956Z,18.10
2017-11-06T12:24:05.605Z,27.33
2017-11-06T12:26:08.266Z,20.43
2017-11-06T12:28:11.670Z,18.60
2017-11-06T12:30:14.318Z,20.57
2017-11-06T12:32:17.783Z,12.63
2017-11-06T12:34:20.417Z,12.40
2017-11-06T12:36:23.037Z,15.50
2017-11-06T12:38:25.711Z,11.40
2017-11-06T12:40:29.142Z,21.53
2017-11-06T12:42:31.792Z,22.23
2017-11-06T12:44:34.475Z,19.43
2017-11-06T12:46:37.880Z,9.73
2017-11-06T12:48:41.286Z,12.27
2017-11-06T12:50:51.110Z,10.87
2017-11-06T12:52:54.526Z,12.47
2017-11-06T12:54:57.188Z,9.57
2017-11-06T12:56:59.861Z,8.90
2017-11-06T12:59:03.335Z,14.27
2017-11-06T13:01:06.300Z,13.10
2017-11-06T13:03:08.976Z,9.67
2017-11-06T13:05:11.622Z,10.37
2017-11-06T13:07:14.256Z,7.13
2017-11-06T13:09:17.693Z,6.60
2017-11-06T13:11:20.343Z,11.90
2017-11-06T13:13:23.453Z,15.10
2017-11-06T13:15:26.112Z,5.77
2017-11-06T13:17:28.744Z,9.43
2017-11-06T13:19:32.159Z,9.27
2017-11-06T13:21:34.836Z,18.53
2017-11-06T13:23:37.482Z,14.07
2017-11-06T13:25:40.138Z,9.97
2017-11-06T13:27:42.818Z,11.60
2017-11-06T13:29:45.463Z,11.70
2017-11-06T13:31:48.118Z,6.53
2017-11-06T13:33:50.790Z,21.60
2017-11-06T13:35:53.434Z,8.77
2017-11-06T13:37:56.159Z,7.70
2017-11-06T13:39:58.808Z,6.33
2017-11-06T13:42:01.617Z,5.17
2017-11-06T13:44:04.285Z,12.50
2017-11-06T13:46:06.926Z,7.33
2017-11-06T13:48:10.344Z,13.70
2017-11-06T13:50:13.004Z,11.13
2017-11-06T13:52:16.417Z,9.93
2017-11-06T13:54:19.070Z,12.27
2017-11-06T13:56:22.516Z,16.50
2017-11-06T13:58:25.164Z,8.90
2017-11-06T14:00:27.902Z,11.53
2017-11-06T14:02:31.340Z,12.40
2017-11-06T14:04:34.017Z,15.57
2017-11-06T14:06:36.661Z,9.23
2017-11-06T14:08:39.345Z,11.87
2017-11-06T14:10:42.025Z,11.67
2017-11-06T14:12:44.673Z,8.90
2017-11-06T14:14:48.108Z,7.67
2017-11-06T14:16:50.752Z,12.47
2017-11-06T14:18:53.637Z,15.53
2017-11-06T14:20:56.336Z,7.80
2017-11-06T14:22:58.973Z,13.97
2017-11-06T14:25:02.427Z,7.43
2017-11-06T14:27:05.104Z,5.20
2017-11-06T14:29:07.728Z,6.43
2017-11-06T14:31:10.457Z,6.13
2017-11-06T14:33:13.111Z,18.20
2017-11-06T14:35:15.753Z,10.43
2017-11-06T14:37:18.440Z,12.67
2017-11-06T14:39:21.898Z,12.00
2017-11-06T14:41:24.581Z,18.70
2017-11-06T14:43:28.058Z,12.03
2017-11-06T14:45:31.724Z,13.47
2017-11-06T14:47:34.564Z,10.30
2017-11-06T14:49:37.283Z,14.73
2017-11-06T14:51:40.205Z,8.73
2017-11-06T14:53:42.980Z,15.73
2017-11-06T14:55:46.526Z,39.87
2017-11-06T14:57:49.263Z,49.80
2017-11-06T14:59:52.823Z,22.17
2017-11-06T15:01:55.555Z,19.80
2017-11-06T15:04:05.943Z,28.37
2017-11-06T15:08:31.010Z,34.03
2017-11-06T15:10:40.703Z,37.77
2017-11-06T15:12:43.423Z,13.97
2017-11-06T15:14:46.889Z,22.27
2017-11-06T15:16:57.114Z,17.73
2017-11-06T15:18:59.805Z,12.70
2017-11-06T15:21:02.480Z,17.73
2017-11-06T15:23:05.168Z,14.27
2017-11-06T15:25:07.864Z,22.30
2017-11-06T15:27:11.285Z,18.27
2017-11-06T15:29:13.916Z,12.77
2017-11-06T15:31:16.590Z,15.73
2017-11-06T15:33:19.219Z,9.80
2017-11-06T15:35:21.859Z,9.43
2017-11-06T15:37:25.284Z,11.20
2017-11-06T15:39:27.935Z,12.93
2017-11-06T15:41:31.378Z,28.90
2017-11-06T15:43:34.058Z,18.90
2017-11-06T15:45:36.741Z,13.57
2017-11-06T15:47:39.402Z,18.93
2017-11-06T15:49:42.067Z,17.77
2017-11-06T15:51:44.761Z,18.77
2017-11-06T15:53:51.623Z,19.07
2017-11-06T15:56:04.998Z,17.67
2017-11-06T15:58:07.721Z,13.83
2017-11-06T16:00:10.426Z,14.13
2017-11-06T16:02:13.089Z,21.97
2017-11-06T16:04:15.977Z,33.60
2017-11-06T16:06:18.667Z,26.43
2017-11-06T16:08:21.322Z,31.13
2017-11-06T16:10:24.016Z,27.57
2017-11-06T16:12:26.756Z,30.30
2017-11-06T16:14:29.384Z,31.67
2017-11-06T16:16:32.867Z,18.53
2017-11-06T16:18:36.420Z,15.83
2017-11-06T16:20:39.179Z,16.30
2017-11-06T16:22:41.970Z,13.10
2017-11-06T16:24:44.671Z,15.03
2017-11-06T16:26:47.350Z,16.23
2017-11-06T16:28:50.844Z,17.63
2017-11-06T16:30:53.477Z,15.00
2017-11-06T16:32:56.143Z,31.70
2017-11-06T16:34:58.807Z,19.30
2017-11-06T16:37:01.556Z,20.10
2017-11-06T16:39:04.233Z,21.60
2017-11-06T16:41:06.929Z,35.97
2017-11-06T16:43:10.321Z,16.83
2017-11-06T16:45:13.019Z,16.27
2017-11-06T16:47:25.392Z,22.33
2017-11-06T16:49:28.804Z,24.70
2017-11-06T16:51:31.596Z,29.27
2017-11-06T16:53:34.292Z,39.27
2017-11-06T16:55:37.143Z,37.27
2017-11-06T16:57:39.809Z,43.57
2017-11-06T16:59:42.523Z,43.17
2017-11-06T17:01:45.268Z,43.03
2017-11-06T17:03:47.945Z,32.73
2017-11-06T17:05:50.639Z,47.37
2017-11-06T17:07:53.303Z,50.63
2017-11-06T17:09:56.086Z,49.83
2017-11-06T17:11:59.765Z,61.73
2017-11-06T17:14:02.418Z,53.13
2017-11-06T17:16:05.856Z,58.30
2017-11-06T17:18:08.522Z,36.30
2017-11-06T17:20:11.190Z,68.73
2017-11-06T17:22:13.878Z,44.80
2017-11-06T17:24:17.555Z,34.67
2017-11-06T17:26:20.198Z,31.87
2017-11-06T17:28:22.868Z,30.23
2017-11-06T17:30:25.518Z,27.60
2017-11-06T17:32:28.834Z,27.60
2017-11-06T17:34:31.937Z,30.13
2017-11-06T17:36:35.363Z,27.70
2017-11-06T17:38:38.043Z,29.77
2017-11-06T17:40:40.766Z,27.37
2017-11-06T17:42:43.429Z,41.40
2017-11-06T17:44:46.083Z,112.90
2017-11-06T17:46:48.769Z,66.80
2017-11-06T17:48:51.430Z,88.60
2017-11-06T17:50:54.095Z,48.50
2017-11-06T17:52:56.781Z,66.43
2017-11-06T17:54:59.497Z,69.10
2017-11-06T17:57:02.148Z,63.83
2017-11-06T17:59:04.925Z,75.90
2017-11-06T18:01:07.563Z,61.33
2017-11-06T18:03:10.211Z,69.43
2017-11-06T18:05:12.868Z,60.57
2017-11-06T18:07:15.514Z,50.80
2017-11-06T18:09:18.187Z,49.03
2017-11-06T18:11:20.886Z,45.07
2017-11-06T18:13:23.552Z,44.63
2017-11-06T18:15:26.221Z,35.07
2017-11-06T18:17:28.907Z,34.67
2017-11-06T18:19:31.570Z,35.53
2017-11-06T18:21:34.231Z,28.50
2017-11-06T18:23:36.910Z,30.50
2017-11-06T18:25:40.886Z,36.60
2017-11-06T18:27:44.601Z,30.43
2017-11-06T18:29:47.271Z,29.20
2017-11-06T18:31:49.896Z,24.53
2017-11-06T18:33:52.546Z,15.10
2017-11-06T18:35:56.305Z,28.80
2017-11-06T18:37:58.963Z,19.10
2017-11-06T18:40:02.483Z,28.13
2017-11-06T18:42:05.719Z,13.70
2017-11-06T18:44:08.690Z,14.10
2017-11-06T18:46:11.419Z,14.20
2017-11-06T18:48:14.142Z,18.07
2017-11-06T18:50:17.162Z,11.30
2017-11-06T18:52:20.025Z,10.83
2017-11-06T18:54:22.779Z,16.70
2017-11-06T18:56:25.452Z,31.50
2017-11-06T18:58:28.226Z,21.40
2017-11-06T19:00:31.400Z,23.50
2017-11-06T19:02:34.295Z,29.40
2017-11-06T19:04:36.954Z,23.10
2017-11-06T19:06:39.649Z,28.80
2017-11-06T19:08:42.317Z,21.17
2017-11-06T19:10:45.067Z,18.53
2017-11-06T19:12:48.152Z,31.47
2017-11-06T19:14:52.304Z,22.60
2017-11-06T19:16:54.995Z,15.13
2017-11-06T19:18:57.711Z,23.10
2017-11-06T19:21:00.842Z,20.10
2017-11-06T19:23:04.308Z,18.37
2017-11-06T19:25:08.328Z,22.13
2017-11-06T19:27:11.401Z,21.13
2017-11-06T19:29:14.680Z,13.57
2017-11-06T19:31:17.434Z,12.23
2017-11-06T19:33:20.832Z,16.73
2017-11-06T19:35:24.248Z,14.60
2017-11-06T19:37:26.947Z,10.53
2017-11-06T19:39:29.919Z,14.03
2017-11-06T19:41:32.817Z,10.77
2017-11-06T19:43:35.807Z,16.37
2017-11-06T19:45:38.452Z,17.53
2017-11-06T19:47:42.055Z,15.63
2017-11-06T19:49:45.902Z,12.00
2017-11-06T19:51:49.326Z,10.90
2017-11-06T19:53:53.202Z,15.23
2017-11-06T19:55:56.675Z,15.00
2017-11-06T19:57:59.433Z,19.33
2017-11-06T20:00:02.060Z,19.33
2017-11-06T20:02:06.628Z,21.03
2017-11-06T20:04:09.286Z,17.13
2017-11-06T20:06:11.945Z,20.03
2017-11-06T20:08:14.639Z,12.13
2017-11-06T20:10:17.466Z,23.40
2017-11-06T20:12:20.346Z,18.70
2017-11-06T20:14:23.089Z,19.70
2017-11-06T20:16:25.872Z,21.03
2017-11-06T20:18:28.614Z,21.23
2017-11-06T20:20:31.328Z,17.03
2017-11-06T20:22:33.979Z,20.17
2017-11-06T20:24:36.743Z,16.20
2017-11-06T20:26:39.456Z,18.00
2017-11-06T20:28:42.197Z,17.73
2017-11-06T20:30:44.866Z,20.27
2017-11-06T20:32:47.551Z,17.43
2017-11-06T20:34:50.276Z,21.23
2017-11-06T20:36:52.939Z,17.83
2017-11-06T20:38:55.705Z,17.60
2017-11-06T20:40:58.341Z,21.23
2017-11-06T20:43:01.015Z,17.57
2017-11-06T20:45:03.710Z,17.30
2017-11-06T20:47:06.447Z,20.90
2017-11-06T20:49:11.017Z,16.50
2017-11-06T20:51:13.711Z,24.03
2017-11-06T20:53:16.373Z,19.23
2017-11-06T20:55:19.016Z,13.80
2017-11-06T20:57:21.743Z,13.30
2017-11-06T20:59:24.450Z,15.63
2017-11-06T21:01:27.110Z,18.33
2017-11-06T21:03:29.768Z,18.17
2017-11-06T21:05:32.445Z,15.10
2017-11-06T21:07:35.098Z,16.93
2017-11-06T21:09:37.737Z,24.17
2017-11-06T21:11:40.380Z,19.27
2017-11-06T21:13:43.112Z,22.77
2017-11-06T21:15:45.746Z,24.57
2017-11-06T21:17:49.183Z,15.43
2017-11-06T21:19:51.836Z,14.13
2017-11-06T21:21:54.463Z,21.47
2017-11-06T21:23:57.105Z,14.90
2017-11-06T21:25:59.905Z,23.83
2017-11-06T21:28:02.547Z,16.63
2017-11-06T21:30:10.853Z,22.27
2017-11-06T21:32:13.516Z,34.93
2017-11-06T21:34:16.200Z,22.00
2017-11-06T21:36:18.896Z,19.83
2017-11-06T21:38:22.371Z,24.53
2017-11-06T21:40:25.058Z,22.77
2017-11-06T21:42:27.716Z,22.63
2017-11-06T21:44:30.389Z,64.07
2017-11-06T21:46:33.493Z,58.10
2017-11-06T21:48:36.276Z,58.47
2017-11-06T21:50:39.125Z,49.73
2017-11-06T21:52:42.700Z,39.97
2017-11-06T21:54:45.423Z,38.23
2017-11-06T21:56:48.114Z,36.70
2017-11-06T21:58:50.789Z,35.67
2017-11-06T22:00:53.583Z,49.37
2017-11-06T22:02:56.342Z,32.73
2017-11-06T22:04:59.022Z,31.07
2017-11-06T22:07:01.660Z,38.63
2017-11-06T22:09:04.395Z,37.87
2017-11-06T22:11:07.040Z,40.10
2017-11-06T22:13:10.466Z,39.77
2017-11-06T22:15:13.154Z,42.87
2017-11-06T22:17:15.804Z,43.10
2017-11-06T22:19:18.463Z,41.83
2017-11-06T22:38:37.595Z,40.77
2017-11-06T22:40:40.241Z,38.30
2017-11-06T22:42:43.702Z,37.40
2017-11-06T22:44:46.358Z,39.00
2017-11-06T23:04:04.609Z,39.30
2017-11-06T23:06:07.294Z,36.43
2017-11-06T23:08:09.929Z,39.60
2017-11-06T23:10:13.335Z,42.93
2017-11-06T23:12:16.004Z,37.80
2017-11-06T23:14:18.636Z,37.27
2017-11-06T23:16:21.293Z,37.63
2017-11-06T23:18:23.970Z,34.93
2017-11-06T23:37:43.734Z,32.93
2017-11-06T23:39:46.422Z,25.63
2017-11-06T23:41:49.073Z,25.90
2017-11-06T23:43:51.748Z,26.63
2017-11-06T23:45:54.470Z,24.07
2017-11-06T23:47:57.189Z,30.73
2017-11-06T23:49:59.849Z,23.53
2017-11-06T23:52:03.368Z,25.33
2017-11-06T23:54:18.614Z,28.70
2017-11-06T23:56:22.066Z,29.20
2017-11-06T23:58:24.754Z,22.07
